createdAt,value
2017-04-12T00:00:46.455Z,1007.28
2017-04-12T00:01:13.941Z,1007.34
2017-04-12T00:01:35.681Z,1007.28
2017-04-12T00:02:28.766Z,1007.26
2017-04-12T00:03:36.085Z,1007.20
2017-04-12T00:03:57.947Z,1007.56
2017-04-12T00:05:00.557Z,1007.34
2017-04-12T00:05:53.514Z,1007.07
2017-04-12T00:06:19.997Z,1007.13
2017-04-12T00:06:41.795Z,1007.15
2017-04-12T00:07:08.291Z,1007.17
2017-04-12T00:07:30.042Z,1007.16
2017-04-12T00:07:51.845Z,1007.25
2017-04-12T00:08:54.354Z,1007.41
2017-04-12T00:09:20.852Z,1007.57
2017-04-12T00:10:23.471Z,1007.54
2017-04-12T00:11:21.846Z,1007.21
2017-04-12T00:11:48.327Z,1007.23
2017-04-12T00:12:50.848Z,1007.27
2017-04-12T00:14:17.148Z,1007.26
2017-04-12T00:15:19.735Z,1007.20
2017-04-12T00:15:41.434Z,1007.38
2017-04-12T00:16:07.913Z,1007.29
2017-04-12T00:16:29.607Z,1007.33
2017-04-12T00:16:56.084Z,1007.07
2017-04-12T00:17:17.881Z,1007.05
2017-04-12T00:18:10.937Z,1007.29
2017-04-12T00:18:37.420Z,1007.08
2017-04-12T00:18:59.110Z,1007.16
2017-04-12T00:19:20.831Z,1007.10
2017-04-12T00:19:42.625Z,1007.09
2017-04-12T00:20:04.322Z,1007.10
2017-04-12T00:21:06.930Z,1006.91
2017-04-12T00:21:33.422Z,1007.14
2017-04-12T00:22:36.016Z,1007.16
2017-04-12T00:23:38.534Z,1006.99
2017-04-12T00:24:00.322Z,1007.32
2017-04-12T00:24:22.012Z,1007.17
2017-04-12T00:25:15.057Z,1006.97
2017-04-12T00:25:41.540Z,1007.10
2017-04-12T00:26:03.256Z,1007.08
2017-04-12T00:27:01.672Z,1006.97
2017-04-12T00:27:54.715Z,1007.04
2017-04-12T00:28:53.019Z,1007.10
2017-04-12T00:29:19.498Z,1007.17
2017-04-12T00:30:17.916Z,1006.94
2017-04-12T00:31:16.284Z,1006.94
2017-04-12T00:31:38.005Z,1007.12
2017-04-12T00:32:36.392Z,1006.93
2017-04-12T00:33:02.865Z,1006.99
2017-04-12T00:34:01.276Z,1006.97
2017-04-12T00:34:27.772Z,1007.44
2017-04-12T00:34:49.475Z,1006.94
2017-04-12T00:35:11.284Z,1006.76
2017-04-12T00:35:32.889Z,1006.88
2017-04-12T00:35:59.362Z,1007.06
2017-04-12T00:36:21.056Z,1006.91
2017-04-12T00:37:14.129Z,1006.93
2017-04-12T00:37:35.843Z,1006.95
2017-04-12T00:38:34.239Z,1006.92
2017-04-12T00:39:27.278Z,1006.73
2017-04-12T00:40:20.306Z,1006.79
2017-04-12T00:41:18.767Z,1006.90
2017-04-12T00:41:40.480Z,1006.93
2017-04-12T00:42:38.897Z,1006.68
2017-04-12T00:43:00.652Z,1006.70
2017-04-12T00:43:59.158Z,1007.02
2017-04-12T00:44:20.885Z,1006.64
2017-04-12T00:45:19.296Z,1006.76
2017-04-12T00:45:41.026Z,1006.67
2017-04-12T00:46:07.520Z,1006.80
2017-04-12T00:46:29.307Z,1006.66
2017-04-12T00:46:55.815Z,1006.71
2017-04-12T00:47:17.521Z,1006.66
2017-04-12T00:48:10.549Z,1006.75
2017-04-12T00:49:03.617Z,1006.86
2017-04-12T00:49:56.668Z,1006.64
2017-04-12T00:50:49.730Z,1006.62
2017-04-12T00:51:16.209Z,1006.72
2017-04-12T00:51:37.917Z,1006.48
2017-04-12T00:52:04.418Z,1006.56
2017-04-12T00:52:26.194Z,1006.56
2017-04-12T00:52:52.668Z,1006.64
2017-04-12T00:53:14.363Z,1006.75
2017-04-12T00:53:36.066Z,1006.79
2017-04-12T00:54:02.538Z,1006.58
2017-04-12T00:54:24.259Z,1006.52
2017-04-12T00:54:50.740Z,1006.69
2017-04-12T00:55:12.537Z,1006.52
2017-04-12T00:55:39.012Z,1006.60
2017-04-12T00:56:00.711Z,1006.84
2017-04-12T00:56:22.523Z,1006.63
2017-04-12T00:56:44.222Z,1006.81
2017-04-12T00:57:05.914Z,1006.77
2017-04-12T00:57:27.611Z,1006.72
2017-04-12T00:57:54.081Z,1006.56
2017-04-12T00:58:15.892Z,1006.97
2017-04-12T00:59:08.856Z,1006.43
2017-04-12T01:00:11.452Z,1006.56
2017-04-12T01:00:33.237Z,1006.38
2017-04-12T01:00:59.750Z,1006.24
2017-04-12T01:01:22.497Z,1006.63
2017-04-12T01:01:48.982Z,1006.62
2017-04-12T01:02:10.759Z,1006.56
2017-04-12T01:02:32.465Z,1006.47
2017-04-12T01:02:58.937Z,1006.56
2017-04-12T01:03:20.651Z,1006.56
2017-04-12T01:03:42.365Z,1006.53
2017-04-12T01:04:04.057Z,1006.59
2017-04-12T01:04:25.753Z,1006.45
2017-04-12T01:04:47.538Z,1006.46
2017-04-12T01:05:09.234Z,1006.46
2017-04-12T01:05:30.934Z,1006.61
2017-04-12T01:05:52.721Z,1006.38
2017-04-12T01:06:14.430Z,1006.40
2017-04-12T01:06:36.155Z,1006.47
2017-04-12T01:06:57.855Z,1006.37
2017-04-12T01:07:24.349Z,1006.36
2017-04-12T01:07:46.052Z,1006.34
2017-04-12T01:08:12.520Z,1006.56
2017-04-12T01:08:34.219Z,1006.48
2017-04-12T01:08:55.918Z,1006.19
2017-04-12T01:09:17.617Z,1006.51
2017-04-12T01:09:39.306Z,1006.41
2017-04-12T01:10:32.328Z,1006.43
2017-04-12T01:10:54.019Z,1006.47
2017-04-12T01:11:20.489Z,1006.36
2017-04-12T01:11:42.210Z,1006.28
2017-04-12T01:12:03.996Z,1006.21
2017-04-12T01:12:30.472Z,1006.38
2017-04-12T01:12:52.174Z,1006.41
2017-04-12T01:13:45.193Z,1006.31
2017-04-12T01:14:06.892Z,1006.25
2017-04-12T01:14:33.364Z,1006.26
2017-04-12T01:14:55.055Z,1006.26
2017-04-12T01:15:16.837Z,1006.34
2017-04-12T01:15:38.539Z,1006.32
2017-04-12T01:16:00.238Z,1006.17
2017-04-12T01:16:21.969Z,1006.23
2017-04-12T01:16:43.684Z,1006.24
2017-04-12T01:17:05.380Z,1006.21
2017-04-12T01:17:27.086Z,1006.19
2017-04-12T01:18:25.487Z,1006.29
2017-04-12T01:19:18.524Z,1006.33
2017-04-12T01:19:40.221Z,1006.30
2017-04-12T01:20:06.695Z,1006.27
2017-04-12T01:20:28.481Z,1006.06
2017-04-12T01:21:21.439Z,1006.21
2017-04-12T01:22:14.473Z,1006.14
2017-04-12T01:22:36.170Z,1006.20
2017-04-12T01:22:57.860Z,1006.07
2017-04-12T01:23:19.647Z,1006.20
2017-04-12T01:23:41.352Z,1006.05
2017-04-12T01:24:03.049Z,1006.02
2017-04-12T01:24:24.743Z,1006.20
2017-04-12T01:24:46.515Z,1006.06
2017-04-12T01:25:08.226Z,1005.99
2017-04-12T01:25:29.919Z,1006.13
2017-04-12T01:25:56.402Z,1006.13
2017-04-12T01:26:18.203Z,1006.05
2017-04-12T01:26:39.894Z,1006.19
2017-04-12T01:27:32.832Z,1005.86
2017-04-12T01:27:54.531Z,1006.04
2017-04-12T01:28:16.235Z,1005.97
2017-04-12T01:28:38.116Z,1006.02
2017-04-12T01:29:31.065Z,1006.09
2017-04-12T01:29:52.777Z,1005.98
2017-04-12T01:30:19.345Z,1005.99
2017-04-12T01:30:41.031Z,1005.95
2017-04-12T01:31:34.069Z,1006.01
2017-04-12T01:31:55.774Z,1006.01
2017-04-12T01:32:17.499Z,1006.06
2017-04-12T01:32:39.276Z,1006.17
2017-04-12T01:33:00.974Z,1005.94
2017-04-12T01:33:22.678Z,1005.79
2017-04-12T01:33:44.368Z,1005.88
2017-04-12T01:34:10.845Z,1006.24
2017-04-12T01:34:32.626Z,1005.89
2017-04-12T01:34:54.326Z,1005.79
2017-04-12T01:35:20.793Z,1005.94
2017-04-12T01:35:42.578Z,1005.97
2017-04-12T01:36:04.274Z,1005.89
2017-04-12T01:37:06.782Z,1005.96
2017-04-12T01:37:59.813Z,1005.79
2017-04-12T01:38:52.863Z,1006.10
2017-04-12T01:39:14.552Z,1006.07
2017-04-12T01:39:36.250Z,1005.94
2017-04-12T01:39:57.965Z,1005.99
2017-04-12T01:40:19.761Z,1006.03
2017-04-12T01:40:41.456Z,1005.76
2017-04-12T01:41:03.152Z,1005.87
2017-04-12T01:41:24.851Z,1005.88
2017-04-12T01:41:46.636Z,1005.84
2017-04-12T01:42:08.356Z,1005.87
2017-04-12T01:42:30.077Z,1005.99
2017-04-12T01:42:56.543Z,1006.06
2017-04-12T01:43:18.322Z,1005.94
2017-04-12T01:43:40.025Z,1005.81
2017-04-12T01:44:01.729Z,1005.74
2017-04-12T01:44:23.512Z,1005.77
2017-04-12T01:45:16.469Z,1005.68
2017-04-12T01:46:09.435Z,1005.70
2017-04-12T01:46:31.128Z,1005.85
2017-04-12T01:46:52.893Z,1005.82
2017-04-12T01:47:14.602Z,1005.82
2017-04-12T01:48:07.642Z,1005.78
2017-04-12T01:48:34.206Z,1005.86
2017-04-12T01:48:55.934Z,1005.93
2017-04-12T01:49:17.618Z,1005.83
2017-04-12T01:49:39.393Z,1005.76
2017-04-12T01:50:01.090Z,1005.69
2017-04-12T01:50:27.563Z,1005.73
2017-04-12T01:50:49.349Z,1005.85
2017-04-12T01:51:10.940Z,1005.80
2017-04-12T01:51:32.641Z,1005.99
2017-04-12T01:51:54.344Z,1005.78
2017-04-12T01:52:16.056Z,1005.91
2017-04-12T01:52:37.868Z,1005.95
2017-04-12T01:52:59.557Z,1005.90
2017-04-12T01:53:21.247Z,1005.89
2017-04-12T01:53:43.052Z,1006.03
2017-04-12T01:54:36.008Z,1005.84
2017-04-12T01:54:57.706Z,1005.85
2017-04-12T01:55:19.495Z,1006.07
2017-04-12T01:55:41.187Z,1006.09
2017-04-12T01:56:34.142Z,1005.76
2017-04-12T01:57:27.097Z,1005.64
2017-04-12T01:57:48.907Z,1005.72
2017-04-12T01:58:10.617Z,1005.78
2017-04-12T01:58:32.319Z,1005.72
2017-04-12T01:58:54.094Z,1005.94
2017-04-12T01:59:15.798Z,1005.74
2017-04-12T01:59:37.504Z,1006.03
2017-04-12T02:00:30.463Z,1005.82
2017-04-12T02:00:56.939Z,1005.79
2017-04-12T02:01:18.632Z,1005.72
2017-04-12T02:02:11.642Z,1005.78
2017-04-12T02:03:04.790Z,1005.79
2017-04-12T02:03:26.590Z,1005.81
2017-04-12T02:03:53.068Z,1005.62
2017-04-12T02:04:14.759Z,1005.78
2017-04-12T02:04:36.556Z,1005.70
2017-04-12T02:05:03.026Z,1005.65
2017-04-12T02:05:24.715Z,1005.60
2017-04-12T02:06:17.755Z,1005.89
2017-04-12T02:06:39.470Z,1005.77
2017-04-12T02:07:01.163Z,1005.71
2017-04-12T02:07:22.936Z,1005.60
2017-04-12T02:07:44.690Z,1005.65
2017-04-12T02:08:06.377Z,1005.79
2017-04-12T02:08:28.070Z,1005.79
2017-04-12T02:08:49.871Z,1005.89
2017-04-12T02:09:16.344Z,1005.87
2017-04-12T02:09:38.033Z,1005.57
2017-04-12T02:09:59.727Z,1005.57
2017-04-12T02:10:52.757Z,1005.78
2017-04-12T02:11:14.467Z,1005.70
2017-04-12T02:11:36.170Z,1005.72
2017-04-12T02:11:57.970Z,1005.54
2017-04-12T02:12:19.674Z,1006.02
2017-04-12T02:13:12.712Z,1005.59
2017-04-12T02:13:34.413Z,1005.59
2017-04-12T02:13:56.122Z,1005.72
2017-04-12T02:14:17.825Z,1005.64
2017-04-12T02:14:39.588Z,1005.76
2017-04-12T02:15:06.071Z,1005.93
2017-04-12T02:15:27.760Z,1005.71
2017-04-12T02:15:49.461Z,1005.60
2017-04-12T02:16:42.489Z,1005.62
2017-04-12T02:17:04.172Z,1005.64
2017-04-12T02:17:57.324Z,1005.63
2017-04-12T02:18:19.113Z,1005.85
2017-04-12T02:18:45.711Z,1005.78
2017-04-12T02:19:07.455Z,1005.70
2017-04-12T02:19:29.163Z,1005.79
2017-04-12T02:19:55.633Z,1005.70
2017-04-12T02:20:17.425Z,1005.61
2017-04-12T02:21:19.925Z,1005.54
2017-04-12T02:21:41.703Z,1005.77
2017-04-12T02:22:03.391Z,1005.73
2017-04-12T02:22:29.896Z,1005.54
2017-04-12T02:22:51.823Z,1005.78
2017-04-12T02:23:13.666Z,1005.92
2017-04-12T02:24:12.168Z,1005.81
2017-04-12T02:24:33.879Z,1005.65
2017-04-12T02:25:26.907Z,1005.66
2017-04-12T02:25:53.374Z,1005.69
2017-04-12T02:26:15.076Z,1005.69
2017-04-12T02:26:36.874Z,1005.76
2017-04-12T02:27:44.146Z,1005.66
2017-04-12T02:28:05.950Z,1005.85
2017-04-12T02:29:04.381Z,1005.56
2017-04-12T02:29:30.877Z,1005.95
2017-04-12T02:30:29.465Z,1005.71
2017-04-12T02:30:55.940Z,1005.81
2017-04-12T02:31:22.417Z,1005.69
2017-04-12T02:31:44.206Z,1005.96
2017-04-12T02:32:37.179Z,1005.66
2017-04-12T02:32:59.004Z,1005.60
2017-04-12T02:33:51.965Z,1005.74
2017-04-12T02:34:13.755Z,1005.80
2017-04-12T02:34:40.237Z,1005.71
2017-04-12T02:35:01.930Z,1005.65
2017-04-12T02:35:23.734Z,1005.78
2017-04-12T02:36:31.020Z,1005.93
2017-04-12T02:36:52.824Z,1005.84
2017-04-12T02:37:14.535Z,1005.70
2017-04-12T02:37:36.236Z,1005.83
2017-04-12T02:37:57.960Z,1005.84
2017-04-12T02:38:19.757Z,1005.92
2017-04-12T02:38:46.259Z,1005.71
2017-04-12T02:39:07.988Z,1005.68
2017-04-12T02:39:29.709Z,1005.79
2017-04-12T02:40:28.208Z,1005.93
2017-04-12T02:41:21.260Z,1005.86
2017-04-12T02:41:42.961Z,1005.96
2017-04-12T02:42:04.671Z,1005.82
2017-04-12T02:42:26.377Z,1005.70
2017-04-12T02:43:24.821Z,1005.89
2017-04-12T02:43:51.317Z,1005.59
2017-04-12T02:44:13.034Z,1005.59
2017-04-12T02:44:34.836Z,1005.60
2017-04-12T02:44:56.555Z,1005.59
2017-04-12T02:45:23.026Z,1005.84
2017-04-12T02:45:44.718Z,1005.70
2017-04-12T02:46:06.508Z,1005.67
2017-04-12T02:46:32.978Z,1005.79
2017-04-12T02:46:54.668Z,1005.78
2017-04-12T02:47:16.370Z,1005.80
2017-04-12T02:47:38.160Z,1005.78
2017-04-12T02:47:59.913Z,1005.91
2017-04-12T02:49:02.522Z,1005.81
2017-04-12T02:49:24.237Z,1005.65
2017-04-12T02:50:22.599Z,1005.76
2017-04-12T02:50:44.311Z,1005.82
2017-04-12T02:51:06.041Z,1005.75
2017-04-12T02:51:32.628Z,1005.76
2017-04-12T02:51:54.257Z,1005.64
2017-04-12T02:52:15.958Z,1005.67
2017-04-12T02:52:42.438Z,1005.70
2017-04-12T02:53:04.231Z,1005.78
2017-04-12T02:53:57.243Z,1005.81
2017-04-12T02:54:19.055Z,1005.88
2017-04-12T02:54:45.529Z,1005.92
2017-04-12T02:55:07.263Z,1005.77
2017-04-12T02:55:28.974Z,1005.76
2017-04-12T02:55:50.768Z,1005.78
2017-04-12T02:56:12.475Z,1005.66
2017-04-12T02:56:34.173Z,1005.74
2017-04-12T02:57:00.669Z,1005.79
2017-04-12T02:57:22.481Z,1005.65
2017-04-12T02:57:48.973Z,1005.51
2017-04-12T02:58:10.678Z,1005.64
2017-04-12T02:58:37.202Z,1005.78
2017-04-12T02:58:59.004Z,1005.64
2017-04-12T02:59:20.713Z,1005.61
2017-04-12T02:59:47.233Z,1005.86
2017-04-12T03:00:09.032Z,1005.76
2017-04-12T03:00:35.521Z,1005.81
2017-04-12T03:00:57.238Z,1005.42
2017-04-12T03:01:18.956Z,1005.59
2017-04-12T03:01:45.435Z,1005.85
2017-04-12T03:02:07.210Z,1005.65
2017-04-12T03:03:05.589Z,1005.72
2017-04-12T03:03:27.287Z,1005.56
2017-04-12T03:03:53.761Z,1005.77
2017-04-12T03:04:15.549Z,1005.69
2017-04-12T03:04:37.254Z,1005.75
2017-04-12T03:05:30.222Z,1005.69
2017-04-12T03:05:51.941Z,1005.74
2017-04-12T03:06:13.632Z,1005.66
2017-04-12T03:06:35.325Z,1005.69
2017-04-12T03:06:57.163Z,1005.68
2017-04-12T03:07:23.644Z,1005.82
2017-04-12T03:07:45.339Z,1005.82
2017-04-12T03:08:07.116Z,1005.80
2017-04-12T03:09:00.093Z,1005.77
2017-04-12T03:10:02.689Z,1005.87
2017-04-12T03:10:24.393Z,1005.84
2017-04-12T03:10:46.119Z,1005.81
2017-04-12T03:11:39.168Z,1005.71
2017-04-12T03:12:05.651Z,1005.58
2017-04-12T03:12:27.348Z,1005.66
2017-04-12T03:12:53.838Z,1005.61
2017-04-12T03:13:15.652Z,1005.67
2017-04-12T03:14:14.034Z,1005.52
2017-04-12T03:14:35.757Z,1005.66
2017-04-12T03:14:57.467Z,1005.74
2017-04-12T03:15:19.181Z,1005.63
2017-04-12T03:15:40.963Z,1005.64
2017-04-12T03:16:07.446Z,1005.49
2017-04-12T03:16:33.924Z,1005.49
2017-04-12T03:17:32.436Z,1005.64
2017-04-12T03:18:25.480Z,1005.76
2017-04-12T03:19:23.826Z,1005.65
2017-04-12T03:19:45.612Z,1005.56
2017-04-12T03:20:12.096Z,1005.59
2017-04-12T03:20:33.800Z,1005.51
2017-04-12T03:20:55.600Z,1005.49
2017-04-12T03:21:48.615Z,1005.43
2017-04-12T03:22:15.112Z,1005.68
2017-04-12T03:22:36.891Z,1005.58
2017-04-12T03:22:58.604Z,1005.43
2017-04-12T03:23:51.670Z,1005.50
2017-04-12T03:24:13.382Z,1005.62
2017-04-12T03:25:06.382Z,1005.41
2017-04-12T03:25:28.079Z,1005.52
2017-04-12T03:25:54.565Z,1005.32
2017-04-12T03:26:16.355Z,1005.34
2017-04-12T03:26:38.053Z,1005.43
2017-04-12T03:27:04.530Z,1005.37
2017-04-12T03:27:26.297Z,1005.38
2017-04-12T03:28:19.257Z,1005.37
2017-04-12T03:28:41.046Z,1005.73
2017-04-12T03:29:02.749Z,1005.43
2017-04-12T03:29:24.465Z,1005.45
2017-04-12T03:29:46.213Z,1005.32
2017-04-12T03:30:53.499Z,1005.60
2017-04-12T03:31:15.191Z,1005.57
2017-04-12T03:31:36.895Z,1005.24
2017-04-12T03:31:58.683Z,1005.25
2017-04-12T03:32:20.383Z,1005.39
2017-04-12T03:32:42.081Z,1005.40
2017-04-12T03:33:08.559Z,1005.48
2017-04-12T03:33:30.332Z,1005.40
2017-04-12T03:33:52.035Z,1005.34
2017-04-12T03:34:45.103Z,1005.57
2017-04-12T03:35:38.179Z,1005.25
2017-04-12T03:35:59.877Z,1005.34
2017-04-12T03:36:21.582Z,1005.28
2017-04-12T03:36:43.300Z,1005.21
2017-04-12T03:37:05.081Z,1005.36
2017-04-12T03:38:03.398Z,1005.22
2017-04-12T03:38:25.162Z,1005.18
2017-04-12T03:38:46.857Z,1005.22
2017-04-12T03:39:13.333Z,1005.25
2017-04-12T03:39:35.038Z,1005.32
2017-04-12T03:40:01.545Z,1005.36
2017-04-12T03:40:23.309Z,1005.28
2017-04-12T03:40:45.041Z,1005.29
2017-04-12T03:41:11.497Z,1005.26
2017-04-12T03:41:33.275Z,1005.54
2017-04-12T03:42:26.228Z,1005.40
2017-04-12T03:42:48.024Z,1005.50
2017-04-12T03:43:14.495Z,1005.11
2017-04-12T03:43:36.219Z,1005.18
2017-04-12T03:43:57.920Z,1005.30
2017-04-12T03:44:19.700Z,1005.39
2017-04-12T03:44:41.409Z,1005.47
2017-04-12T03:45:07.908Z,1005.22
2017-04-12T03:45:29.704Z,1005.29
2017-04-12T03:45:56.188Z,1005.37
2017-04-12T03:46:17.893Z,1005.25
2017-04-12T03:46:44.374Z,1005.36
2017-04-12T03:47:06.149Z,1005.31
2017-04-12T03:47:27.842Z,1005.26
2017-04-12T03:47:54.315Z,1005.24
2017-04-12T03:48:16.093Z,1005.10
2017-04-12T03:48:42.587Z,1005.24
2017-04-12T03:49:04.314Z,1005.25
2017-04-12T03:49:26.035Z,1005.09
2017-04-12T03:49:47.728Z,1005.27
2017-04-12T03:50:09.439Z,1005.20
2017-04-12T03:50:31.148Z,1005.30
2017-04-12T03:51:24.175Z,1005.00
2017-04-12T03:51:50.650Z,1005.21
2017-04-12T03:52:12.350Z,1005.08
2017-04-12T03:52:34.140Z,1005.05
2017-04-12T03:52:55.842Z,1005.19
2017-04-12T03:53:17.535Z,1005.48
2017-04-12T03:53:44.008Z,1004.99
2017-04-12T03:54:05.777Z,1004.92
2017-04-12T03:54:27.490Z,1004.84
2017-04-12T03:54:49.188Z,1005.09
2017-04-12T03:55:10.955Z,1005.38
2017-04-12T03:55:32.640Z,1005.15
2017-04-12T03:55:54.361Z,1004.92
2017-04-12T03:56:16.060Z,1004.97
2017-04-12T03:56:37.854Z,1005.03
2017-04-12T03:57:04.329Z,1004.98
2017-04-12T03:57:26.019Z,1005.21
2017-04-12T03:57:47.719Z,1005.16
2017-04-12T03:58:09.521Z,1004.95
2017-04-12T03:58:31.230Z,1005.07
2017-04-12T03:58:52.922Z,1005.02
2017-04-12T03:59:19.389Z,1005.20
2017-04-12T03:59:41.166Z,1005.17
2017-04-12T04:00:34.187Z,1004.97
2017-04-12T04:00:55.918Z,1005.10
2017-04-12T04:01:54.336Z,1005.06
2017-04-12T04:02:16.048Z,1005.01
2017-04-12T04:03:14.440Z,1005.14
2017-04-12T04:03:36.138Z,1004.96
2017-04-12T04:04:34.524Z,1004.94
2017-04-12T04:05:27.482Z,1005.00
2017-04-12T04:05:49.299Z,1004.91
2017-04-12T04:06:15.763Z,1005.18
2017-04-12T04:06:40.197Z,1005.26
2017-04-12T04:07:01.990Z,1005.15
2017-04-12T04:07:28.457Z,1005.17
2017-04-12T04:07:50.143Z,1005.08
2017-04-12T04:08:12.903Z,1004.95
2017-04-12T04:09:05.865Z,1005.18
2017-04-12T04:10:04.188Z,1005.04
2017-04-12T04:10:57.196Z,1005.12
2017-04-12T04:11:23.684Z,1005.23
2017-04-12T04:11:45.362Z,1005.34
2017-04-12T04:12:07.151Z,1005.07
2017-04-12T04:12:33.643Z,1005.20
2017-04-12T04:13:00.093Z,1005.07
2017-04-12T04:13:26.687Z,1005.01
2017-04-12T04:13:48.320Z,1005.08
2017-04-12T04:14:10.029Z,1005.18
2017-04-12T04:14:31.749Z,1005.05
2017-04-12T04:14:53.517Z,1005.18
2017-04-12T04:15:15.226Z,1005.08
2017-04-12T04:15:41.720Z,1005.30
2017-04-12T04:16:03.457Z,1005.12
2017-04-12T04:16:29.938Z,1005.27
2017-04-12T04:16:51.628Z,1005.43
2017-04-12T04:17:13.327Z,1005.25
2017-04-12T04:17:35.078Z,1004.90
2017-04-12T04:17:56.773Z,1004.89
2017-04-12T04:18:23.282Z,1004.90
2017-04-12T04:18:44.973Z,1005.00
2017-04-12T04:19:06.753Z,1004.98
2017-04-12T04:19:28.446Z,1005.26
2017-04-12T04:19:50.152Z,1005.22
2017-04-12T04:20:16.627Z,1005.13
2017-04-12T04:20:38.412Z,1005.03
2017-04-12T04:21:00.113Z,1005.04
2017-04-12T04:21:21.824Z,1005.00
2017-04-12T04:21:43.634Z,1004.98
2017-04-12T04:22:05.336Z,1005.21
2017-04-12T04:22:27.030Z,1005.15
2017-04-12T04:22:48.753Z,1005.35
2017-04-12T04:23:10.531Z,1005.13
2017-04-12T04:23:32.301Z,1005.17
2017-04-12T04:24:25.261Z,1005.04
2017-04-12T04:24:51.769Z,1005.08
2017-04-12T04:25:13.443Z,1005.19
2017-04-12T04:25:35.152Z,1005.23
2017-04-12T04:26:01.635Z,1005.12
2017-04-12T04:26:23.419Z,1005.12
2017-04-12T04:26:45.154Z,1005.01
2017-04-12T04:27:11.625Z,1005.00
2017-04-12T04:27:33.421Z,1005.09
2017-04-12T04:28:31.735Z,1004.99
2017-04-12T04:28:53.517Z,1004.99
2017-04-12T04:29:15.241Z,1004.94
2017-04-12T04:29:41.718Z,1004.99
2017-04-12T04:30:03.612Z,1005.12
2017-04-12T04:30:29.986Z,1005.12
2017-04-12T04:30:51.684Z,1005.21
2017-04-12T04:31:50.118Z,1004.95
2017-04-12T04:32:16.600Z,1005.03
2017-04-12T04:33:23.891Z,1005.31
2017-04-12T04:33:45.582Z,1005.11
2017-04-12T04:34:07.300Z,1005.15
2017-04-12T04:34:33.776Z,1005.27
2017-04-12T04:34:55.543Z,1005.26
2017-04-12T04:35:17.249Z,1005.18
2017-04-12T04:35:43.735Z,1005.11
2017-04-12T04:36:05.537Z,1005.07
2017-04-12T04:36:32.023Z,1005.00
2017-04-12T04:36:53.762Z,1005.09
2017-04-12T04:37:20.242Z,1005.00
2017-04-12T04:37:42.060Z,1004.96
2017-04-12T04:38:44.676Z,1004.98
2017-04-12T04:39:06.386Z,1005.06
2017-04-12T04:39:32.886Z,1004.94
2017-04-12T04:39:59.653Z,1005.09
2017-04-12T04:40:21.286Z,1005.01
2017-04-12T04:41:23.795Z,1004.81
2017-04-12T04:41:45.506Z,1005.06
2017-04-12T04:42:07.222Z,1005.11
2017-04-12T04:42:28.922Z,1005.04
2017-04-12T04:42:55.397Z,1004.90
2017-04-12T04:43:17.102Z,1004.94
2017-04-12T04:44:11.091Z,1005.22
2017-04-12T04:44:32.809Z,1005.05
2017-04-12T04:44:59.297Z,1005.06
2017-04-12T04:45:21.077Z,1004.90
2017-04-12T04:45:42.771Z,1004.78
2017-04-12T04:46:09.259Z,1004.82
2017-04-12T04:46:31.058Z,1005.00
2017-04-12T04:46:52.776Z,1004.89
2017-04-12T04:47:45.821Z,1004.93
2017-04-12T04:48:44.114Z,1004.97
2017-04-12T04:49:05.830Z,1004.90
2017-04-12T04:50:04.151Z,1005.16
2017-04-12T04:51:02.532Z,1004.80
2017-04-12T04:51:55.590Z,1004.87
2017-04-12T04:52:53.894Z,1004.94
2017-04-12T04:53:52.316Z,1004.95
2017-04-12T04:54:15.089Z,1004.96
2017-04-12T04:54:41.726Z,1004.57
2017-04-12T04:55:03.362Z,1004.74
2017-04-12T04:55:29.870Z,1004.66
2017-04-12T04:55:51.551Z,1004.71
2017-04-12T04:56:13.360Z,1004.85
2017-04-12T04:57:11.673Z,1004.92
2017-04-12T04:57:38.274Z,1004.95
2017-04-12T04:58:40.864Z,1004.94
2017-04-12T04:59:02.645Z,1004.97
2017-04-12T04:59:55.627Z,1004.96
2017-04-12T05:00:17.429Z,1004.77
2017-04-12T05:00:39.148Z,1004.65
2017-04-12T05:01:00.848Z,1004.81
2017-04-12T05:01:22.574Z,1004.77
2017-04-12T05:01:44.364Z,1004.88
2017-04-12T05:02:06.066Z,1004.79
2017-04-12T05:02:27.759Z,1004.86
2017-04-12T05:02:49.584Z,1004.72
2017-04-12T05:03:11.277Z,1004.66
2017-04-12T05:04:04.334Z,1004.69
2017-04-12T05:04:25.938Z,1005.09
2017-04-12T05:04:52.431Z,1004.92
2017-04-12T05:05:14.152Z,1005.00
2017-04-12T05:05:40.643Z,1004.88
2017-04-12T05:06:02.438Z,1004.95
2017-04-12T05:06:28.936Z,1004.97
2017-04-12T05:06:50.654Z,1004.74
2017-04-12T05:07:17.223Z,1004.83
2017-04-12T05:07:38.923Z,1004.80
2017-04-12T05:08:00.648Z,1005.02
2017-04-12T05:08:59.081Z,1004.77
2017-04-12T05:09:57.351Z,1004.80
2017-04-12T05:10:23.827Z,1004.73
2017-04-12T05:11:22.101Z,1004.81
2017-04-12T05:11:43.880Z,1004.78
2017-04-12T05:12:05.589Z,1004.85
2017-04-12T05:12:32.060Z,1004.83
2017-04-12T05:12:53.837Z,1004.79
2017-04-12T05:14:01.117Z,1005.11
2017-04-12T05:14:22.918Z,1004.76
2017-04-12T05:14:44.637Z,1004.71
2017-04-12T05:15:37.616Z,1004.90
2017-04-12T05:15:59.351Z,1004.79
2017-04-12T05:16:52.377Z,1004.75
2017-04-12T05:17:54.968Z,1004.61
2017-04-12T05:18:53.197Z,1004.83
2017-04-12T05:19:14.913Z,1004.82
2017-04-12T05:20:22.201Z,1004.72
2017-04-12T05:20:44.002Z,1004.61
2017-04-12T05:21:37.147Z,1005.07
2017-04-12T05:22:03.622Z,1004.60
2017-04-12T05:22:25.339Z,1004.65
2017-04-12T05:22:51.816Z,1004.59
2017-04-12T05:23:13.618Z,1004.76
2017-04-12T05:23:35.386Z,1004.60
2017-04-12T05:24:28.346Z,1004.77
2017-04-12T05:24:50.047Z,1004.79
2017-04-12T05:25:16.522Z,1004.91
2017-04-12T05:25:38.338Z,1004.87
2017-04-12T05:26:00.079Z,1004.72
2017-04-12T05:26:53.122Z,1004.62
2017-04-12T05:27:14.839Z,1004.76
2017-04-12T05:28:07.894Z,1004.66
2017-04-12T05:28:29.586Z,1004.63
2017-04-12T05:28:56.065Z,1004.46
2017-04-12T05:29:17.755Z,1004.66
2017-04-12T05:29:39.532Z,1004.60
2017-04-12T05:30:01.237Z,1004.63
2017-04-12T05:30:22.937Z,1004.71
2017-04-12T05:30:49.504Z,1004.55
2017-04-12T05:31:11.280Z,1004.83
2017-04-12T05:31:37.836Z,1004.69
2017-04-12T05:31:59.625Z,1004.66
2017-04-12T05:32:21.506Z,1004.67
2017-04-12T05:32:47.975Z,1004.67
2017-04-12T05:33:09.856Z,1004.65
2017-04-12T05:33:31.568Z,1004.72
2017-04-12T05:33:58.151Z,1004.69
2017-04-12T05:34:22.877Z,1004.69
2017-04-12T05:34:49.321Z,1004.59
2017-04-12T05:35:11.129Z,1004.61
2017-04-12T05:35:32.846Z,1004.64
2017-04-12T05:36:25.890Z,1004.63
2017-04-12T05:36:47.591Z,1004.50
2017-04-12T05:37:09.387Z,1004.74
2017-04-12T05:37:31.092Z,1004.70
2017-04-12T05:37:53.883Z,1004.60
2017-04-12T05:38:15.685Z,1004.73
2017-04-12T05:38:37.457Z,1004.74
2017-04-12T05:38:59.184Z,1004.80
2017-04-12T05:39:20.902Z,1004.50
2017-04-12T05:39:42.613Z,1004.58
2017-04-12T05:40:35.571Z,1004.61
2017-04-12T05:41:02.180Z,1004.49
2017-04-12T05:41:23.802Z,1004.84
2017-04-12T05:42:16.806Z,1004.51
2017-04-12T05:43:09.825Z,1004.58
2017-04-12T05:44:08.149Z,1004.65
2017-04-12T05:44:34.640Z,1004.57
2017-04-12T05:45:01.231Z,1004.43
2017-04-12T05:45:22.969Z,1004.57
2017-04-12T05:45:44.676Z,1004.68
2017-04-12T05:46:06.387Z,1004.60
2017-04-12T05:46:28.080Z,1004.88
2017-04-12T05:46:49.786Z,1004.54
2017-04-12T05:47:16.297Z,1004.76
2017-04-12T05:47:37.975Z,1004.75
2017-04-12T05:47:59.699Z,1004.73
2017-04-12T05:48:26.178Z,1004.63
2017-04-12T05:48:47.879Z,1004.56
2017-04-12T05:49:09.660Z,1004.57
2017-04-12T05:49:31.390Z,1004.66
2017-04-12T05:49:53.112Z,1004.63
2017-04-12T05:50:14.822Z,1004.67
2017-04-12T05:51:17.317Z,1004.62
2017-04-12T05:51:43.838Z,1004.56
2017-04-12T05:52:51.115Z,1004.65
2017-04-12T05:53:12.808Z,1004.68
2017-04-12T05:54:05.838Z,1004.83
2017-04-12T05:54:32.315Z,1004.75
2017-04-12T05:54:54.016Z,1004.60
2017-04-12T05:55:52.322Z,1004.96
2017-04-12T05:56:14.031Z,1004.60
2017-04-12T05:57:12.510Z,1004.47
2017-04-12T05:58:05.531Z,1004.60
2017-04-12T05:59:03.836Z,1004.57
2017-04-12T05:59:25.568Z,1004.61
2017-04-12T06:00:18.507Z,1004.54
2017-04-12T06:00:40.280Z,1004.57
2017-04-12T06:01:38.580Z,1004.54